27. Mai 2022

Uhrzeit Code Wetter Temp. Sichtweite Wolkendecke Wind METAR/SPECI
8:25 pm
V
55 °F 6¼ mi+ - Var Var 26 kt METAR EHMG 271825Z AUTO VRB26KT 9999 NCD 13/08 Q1020
7:55 pm
V
55 °F 6¼ mi+ - 270° 270° 21 kt METAR EHMG 271755Z AUTO 27021KT 9999 NCD 13/08 Q1020
7:25 pm
V
54 °F 6¼ mi+ - 270° 270° 22 kt METAR EHMG 271725Z AUTO 27022KT 9999 NCD 12/08 Q1020
6:55 pm
V
55 °F 6¼ mi+ - Var Var 27 kt METAR EHMG 271655Z AUTO VRB27KT 9999 NCD 13/07 Q1020
6:25 pm
V
55 °F 6¼ mi+ - Var Var 30 kt METAR EHMG 271625Z AUTO VRB30KT 9999 NCD 13/07 Q1020
5:55 pm
V
54 °F 6¼ mi+ - 290° 290° 32 kt METAR EHMG 271555Z AUTO 29032KT 250V020 9999 NCD 12/07 Q1020
5:25 pm
V
54 °F 6¼ mi+ - 290° 290° 33 kt METAR EHMG 271525Z AUTO 29033KT 250V320 9999 FEW021 12/07 Q1020
4:55 pm
V
54 °F 6¼ mi+ - Var Var 26 kt METAR EHMG 271455Z AUTO VRB26KT 9999 FEW019 SCT022 12/08 Q1020
4:25 pm
M
54 °F 6¼ mi+ 2.200 ft Var Var 28 kt METAR EHMG 271425Z AUTO VRB28KT 9999 SCT019 BKN022 12/08 Q1020
3:55 pm
M
54 °F 6¼ mi+ 2.400 ft 310° 310° 28 kt METAR EHMG 271355Z AUTO 31028KT 9999 FEW017 SCT021 BKN024 12/08 Q1020
3:25 pm
V
54 °F 6¼ mi+ - Var Var 30 kt METAR EHMG 271325Z AUTO VRB30KT 9999 FEW017 SCT022 12/07 Q1020
2:55 pm
V
54 °F 6¼ mi+ - Var Var 28 kt METAR EHMG 271255Z AUTO VRB28KT 9999 FEW017 12/07 Q1020
2:25 pm
V
52 °F 6¼ mi+ - 280° 280° 25 kt METAR EHMG 271225Z AUTO 28025KT 9999 SCT017 SCT020 11/07 Q1020
1:55 pm
V
52 °F 6¼ mi+ - Var Var 29 kt METAR EHMG 271155Z AUTO VRB29KT 9999 SCT018 SCT021 11/07 Q1020
1:25 pm
V
52 °F 6¼ mi+ - Var Var 30 kt METAR EHMG 271125Z AUTO VRB30KT 9999 SCT018 SCT022 11/07 Q1020
12:55 pm
M
52 °F 6¼ mi+ 2.700 ft 300° 300° 30 kt METAR EHMG 271055Z AUTO 30030KT 250V050 9999 FEW018 SCT022 BKN027 11/06 Q1019
12:25 pm
M
52 °F 6¼ mi+ 2.700 ft Var Var 27 kt METAR EHMG 271025Z AUTO VRB27KT 9999 SCT021 SCT024 BKN027 11/06 Q1019
11:55 am
V
52 °F 6¼ mi+ 3.000 ft Var Var 29 kt METAR EHMG 270955Z AUTO VRB29KT 9999 SCT021 SCT025 OVC030 11/06 Q1019
11:25 am
M
52 °F 6¼ mi+ 2.800 ft Var Var 28 kt METAR EHMG 270925Z AUTO VRB28KT 9999 SCT022 BKN028 BKN031 11/06 Q1019
10:55 am
M
52 °F 6¼ mi+ 2.500 ft Var Var 31 kt METAR EHMG 270855Z AUTO VRB31KT 9999 FEW022 BKN025 BKN029 11/06 Q1019
10:25 am
V
54 °F 6¼ mi+ - Var Var 31 kt METAR EHMG 270825Z AUTO VRB31KT 9999 SCT024 12/06 Q1018
9:55 am
V
54 °F 6¼ mi+ - Var Var 30 kt METAR EHMG 270755Z AUTO VRB30KT 9999 SCT024 12/06 Q1018
9:25 am
V
54 °F 6¼ mi+ - Var Var 26 kt METAR EHMG 270725Z AUTO VRB26KT 9999 FEW026 12/06 Q1018
8:55 am
V
54 °F 6¼ mi+ - Var Var 30 kt METAR EHMG 270655Z AUTO VRB30KT 9999 FEW020 12/05 Q1018
8:25 am
V
54 °F 6¼ mi+ - Var Var 28 kt METAR EHMG 270625Z AUTO VRB28KT 9999 FEW020 12/06 Q1018
7:55 am
V
54 °F 6¼ mi+ - Var Var 29 kt METAR EHMG 270555Z AUTO VRB29KT 9999 FEW025 12/06 Q1017
7:25 am
V
54 °F 6¼ mi+ - Var Var 28 kt METAR EHMG 270525Z AUTO VRB28KT 9999 NCD 12/05 Q1017
6:55 am
V
54 °F 6¼ mi+ - Var Var 33 kt METAR EHMG 270455Z AUTO VRB33KT 9999 NCD 12/03 Q1017
6:25 am
V
54 °F 6¼ mi+ - 300° 300° 27 kt METAR EHMG 270425Z AUTO 30027KT 9999 NSC 12/05 Q1017
5:55 am
V
54 °F 6¼ mi+ - 310° 310° 24 kt METAR EHMG 270355Z AUTO 31024KT 9999 NSC 12/06 Q1017
5:25 am
V
55 °F 6¼ mi+ - 280° 280° 19 kt METAR EHMG 270325Z AUTO 28019KT 9999 NSC 13/06 Q1017
4:55 am
V
55 °F 6¼ mi+ - Var Var 19 kt METAR EHMG 270255Z AUTO VRB19KT 9999 NSC 13/07 Q1017
4:25 am
V
55 °F 6¼ mi+ - 300° 300° 22 kt METAR EHMG 270225Z AUTO 30022KT 9999 NSC 13/06 Q1017
3:55 am
V
55 °F 6¼ mi+ - Var Var 21 kt METAR EHMG 270155Z AUTO VRB21KT 9999 NSC 13/07 Q1017
3:25 am
V
55 °F 6¼ mi+ - Var Var 13 kt METAR EHMG 270125Z AUTO VRB13KT 9999 NSC 13/10 Q1017
2:55 am
V
55 °F 6¼ mi+ - 270° 270° 14 kt METAR EHMG 270055Z AUTO 27014KT 9999 NSC 13/09 Q1017
2:25 am
V
55 °F 6¼ mi+ - Var Var 17 kt METAR EHMG 270025Z AUTO VRB17KT 9999 NSC 13/10 Q1017
1:55 am
V
55 °F 6¼ mi+ - 290° 290° 19 kt METAR EHMG 262355Z AUTO 29019KT 250V060 9999 NSC 13/10 Q1017
1:25 am
V
55 °F 6¼ mi+ - Var Var 21 kt METAR EHMG 262325Z AUTO VRB21KT 9999 SCT044 13/10 Q1017
12:55 am
V
55 °F 6¼ mi+ 4.800 ft Var Var 22 kt METAR EHMG 262255Z AUTO VRB22KT 9999 SCT043 BKN048 13/11 Q1017
12:25 am
V
55 °F 6¼ mi+ 4.700 ft Var Var 22 kt METAR EHMG 262225Z AUTO VRB22KT 9999 SCT043/// BKN047/// 13/11 Q1017

26. Mai 2022

Uhrzeit Code Wetter Temp. Sichtweite Wolkendecke Wind METAR/SPECI
11:55 pm
V
57 °F 6¼ mi+ - 260° 260° 20 kt METAR EHMG 262155Z AUTO 26020KT 9999 SCT044 14/12 Q1017
11:25 pm
V
57 °F 6¼ mi+ - 260° 260° 23 kt METAR EHMG 262125Z AUTO 26023KT 9999 FEW041 SCT046 14/11 Q1016
10:55 pm
V
57 °F 6¼ mi+ - 260° 260° 25 kt METAR EHMG 262055Z AUTO 26025KT 9999 FEW045 14/12 Q1017
10:25 pm
V
57 °F 6¼ mi+ - 250° 250° 26 kt METAR EHMG 262025Z AUTO 25026KT 9999 NSC 14/12 Q1016
9:55 pm
V
57 °F 6¼ mi+ - 250° 250° 25 kt METAR EHMG 261955Z AUTO 25025KT 9999 FEW038 SCT045 14/12 Q1016
9:25 pm
V
57 °F 6¼ mi+ 4.500 ft 240° 240° 29 kt METAR EHMG 261925Z AUTO 24029KT 9999 SCT038 BKN045 14/12 Q1016
8:55 pm
V
57 °F 6¼ mi+ - 240° 240° 29 kt METAR EHMG 261855Z AUTO 24029KT 9999 FEW030 SCT045 14/12 Q1016
8:25 pm
V
57 °F 6¼ mi+ 3.000 ft 240° 240° 29 kt METAR EHMG 261825Z AUTO 24029KT 9999 SCT027 BKN030 BKN035 14/12 Q1016
7:55 pm
V
57 °F 6¼ mi+ 3.000 ft 230° 230° 30 kt METAR EHMG 261755Z AUTO 23030KT 9999 SCT027 BKN030 BKN035 14/12 Q1016
7:25 pm
M
55 °F 6¼ mi+ 2.900 ft 230° 230° 30 kt METAR EHMG 261725Z AUTO 23030KT 9999 FEW025 BKN029 BKN034 13/12 Q1016
6:55 pm
M
55 °F 6¼ mi+ 2.400 ft 230° 230° 30 kt METAR EHMG 261655Z AUTO 23030KT 9999 FEW016 SCT020 BKN024 13/12 Q1016
6:25 pm
I
55 °F 2⅜ mi 2.100 ft 230° 230° 26 kt METAR EHMG 261625Z AUTO 23026KT 3900 BR FEW018 BKN021 OVC024 13/12 Q1017
5:55 pm
M
55 °F 3⅛ mi 2.100 ft 230° 230° 23 kt METAR EHMG 261555Z AUTO 23023KT 5000 BR FEW017 BKN021 OVC024 13/11 Q1017
5:25 pm
M
55 °F 3¾ mi 2.500 ft 230° 230° 23 kt METAR EHMG 261525Z AUTO 23023KT 6000 FEW017 SCT022 BKN025 13/11 Q1018
4:55 pm
V
55 °F 6¼ mi+ 3.900 ft 230° 230° 22 kt METAR EHMG 261455Z AUTO 23022KT 9999 FEW023 SCT028 BKN039 13/11 Q1018
4:25 pm
V
55 °F 6¼ mi+ 4.400 ft 230° 230° 22 kt METAR EHMG 261425Z AUTO 23022KT 9999 FEW038 BKN044 OVC048 13/10 Q1018
3:55 pm
V
55 °F 6¼ mi+ 4.700 ft 240° 240° 20 kt METAR EHMG 261355Z AUTO 24020KT 9999 BKN047 13/10 Q1018
3:25 pm
V
55 °F 6¼ mi+ - 240° 240° 19 kt METAR EHMG 261325Z AUTO 24019KT 9999 NSC 13/10 Q1019
2:55 pm
V
55 °F 6¼ mi+ - 240° 240° 21 kt METAR EHMG 261255Z AUTO 24021KT 9999 NSC 13/10 Q1019
2:25 pm
V
55 °F 6¼ mi+ - 240° 240° 20 kt METAR EHMG 261225Z AUTO 24020KT 9999 NSC 13/10 Q1019
1:55 pm
V
55 °F 6¼ mi+ - 240° 240° 18 kt METAR EHMG 261155Z AUTO 24018KT 9999 NSC 13/10 Q1019
1:25 pm
V
55 °F 6¼ mi+ - 250° 250° 18 kt METAR EHMG 261125Z AUTO 25018KT 9999 NSC 13/10 Q1019
12:55 pm
V
55 °F 6¼ mi+ - 250° 250° 19 kt METAR EHMG 261055Z AUTO 25019KT 9999 NSC 13/10 Q1019
12:25 pm
V
55 °F 6¼ mi+ - 250° 250° 20 kt METAR EHMG 261025Z AUTO 25020KT 9999 NSC 13/10 Q1019
11:55 am
V
55 °F 6¼ mi+ - 250° 250° 19 kt METAR EHMG 260955Z AUTO 25019KT 9999 FEW026 13/10 Q1018
11:25 am
V
55 °F 6¼ mi+ - 250° 250° 19 kt METAR EHMG 260925Z AUTO 25019KT 9999 FEW026 13/11 Q1018
10:55 am
V
55 °F 6¼ mi+ - 250° 250° 19 kt METAR EHMG 260855Z AUTO 25019KT 9999 NSC 13/11 Q1018
10:25 am
V
55 °F 6¼ mi+ - 240° 240° 20 kt METAR EHMG 260825Z AUTO 24020KT 9999 NSC 13/11 Q1018
9:55 am
V
55 °F 6¼ mi+ - 250° 250° 20 kt METAR EHMG 260755Z AUTO 25020KT 9999 NSC 13/10 Q1018
9:25 am
V
55 °F 6¼ mi+ - 250° 250° 19 kt METAR EHMG 260725Z AUTO 25019KT 9999 FEW046 13/10 Q1018
8:55 am
V
55 °F 6¼ mi+ - 260° 260° 18 kt METAR EHMG 260655Z AUTO 26018KT 9999 FEW049 13/10 Q1017
8:25 am
V
55 °F 6¼ mi+ - 260° 260° 17 kt METAR EHMG 260625Z AUTO 26017KT 9999 NSC 13/10 Q1017
7:55 am
V
55 °F 6¼ mi+ - 260° 260° 17 kt METAR EHMG 260555Z AUTO 26017KT 9999 NSC 13/10 Q1016
7:25 am
V
55 °F 6¼ mi+ - 260° 260° 18 kt METAR EHMG 260525Z AUTO 26018KT 9999 NSC 13/10 Q1016
6:55 am
V
55 °F 6¼ mi+ - 260° 260° 20 kt METAR EHMG 260455Z AUTO 26020KT 9999 NSC 13/10 Q1016
6:25 am
V
55 °F 6¼ mi+ - 260° 260° 19 kt METAR EHMG 260425Z AUTO 26019KT 9999 FEW036 13/10 Q1015
5:55 am
V
55 °F 6¼ mi+ - 260° 260° 18 kt METAR EHMG 260355Z AUTO 26018KT 9999 NSC 13/09 Q1015
5:25 am
V
55 °F 6¼ mi+ - 260° 260° 19 kt METAR EHMG 260325Z AUTO 26019KT 9999 NSC 13/10 Q1015
4:55 am
V
55 °F 6¼ mi+ - 260° 260° 19 kt METAR EHMG 260255Z AUTO 26019KT 9999 SCT048 13/10 Q1015
4:25 am
V
55 °F 6¼ mi+ 4.600 ft 260° 260° 19 kt METAR EHMG 260225Z AUTO 26019KT 9999 FEW040 BKN046 13/10 Q1014
3:55 am
V
57 °F 6¼ mi+ - 260° 260° 18 kt METAR EHMG 260155Z AUTO 26018KT 9999 FEW040 SCT045 14/10 Q1014
3:25 am
V
57 °F 6¼ mi+ - 270° 270° 20 kt METAR EHMG 260125Z AUTO 27020KT 9999 FEW043 SCT049 14/10 Q1014
2:55 am
V
57 °F 6¼ mi+ - 260° 260° 24 kt METAR EHMG 260055Z AUTO 26024KT 9999 FEW041 SCT047 14/10 Q1014
2:25 am
V
57 °F 6¼ mi+ 4.700 ft 260° 260° 23 kt METAR EHMG 260025Z AUTO 26023KT 9999 SCT041/// BKN047/// 14/10 Q1013
1:55 am
V
57 °F 6¼ mi+ - 260° 260° 23 kt METAR EHMG 252355Z AUTO 26023KT 9999 FEW041 14/10 Q1013
1:25 am
V
57 °F 6¼ mi+ - 250° 250° 25 kt METAR EHMG 252325Z AUTO 25025KT 9999 NSC 14/10 Q1013
12:55 am
V
57 °F 6¼ mi+ - 250° 250° 25 kt METAR EHMG 252255Z AUTO 25025KT 9999 NSC 14/11 Q1013
12:25 am
V
55 °F 6¼ mi+ - 240° 240° 24 kt METAR EHMG 252225Z AUTO 24024KT 9999 ////// 13/12 Q1013

25. Mai 2022

Uhrzeit Code Wetter Temp. Sichtweite Wolkendecke Wind METAR/SPECI
11:55 pm
V
55 °F 5⅝ mi - 240° 240° 26 kt METAR EHMG 252155Z AUTO 24026KT 9000 NSC 13/12 Q1012
11:25 pm
V
55 °F 6¼ mi+ - 240° 240° 28 kt METAR EHMG 252125Z AUTO 24028KT 9999 NSC 13/12 Q1012
10:55 pm
V
55 °F 6¼ mi+ - 240° 240° 28 kt METAR EHMG 252055Z AUTO 24028KT 9999 NSC 13/12 Q1012
10:25 pm
V
55 °F 6¼ mi+ - 240° 240° 29 kt METAR EHMG 252025Z AUTO 24029KT 9999 NSC 13/12 Q1012
9:55 pm
V
55 °F 5⅝ mi - 230° 230° 31 kt METAR EHMG 251955Z AUTO 23031KT 9000 FEW030 13/12 Q1011
9:25 pm
V
55 °F 6¼ mi+ 4.600 ft 230° 230° 32 kt METAR EHMG 251925Z AUTO 23032KT 9999 FEW030 SCT036 BKN046 13/12 Q1011
8:55 pm
V
55 °F 6¼ mi+ - 230° 230° 30 kt METAR EHMG 251855Z AUTO 23030KT 9999 FEW009 SCT035 13/11 Q1011
8:25 pm
V
55 °F 5 mi - 230° 230° 31 kt METAR EHMG 251825Z AUTO 23031KT 8000 FEW009 13/11 Q1010
7:55 pm
V
55 °F 5⅝ mi - 230° 230° 34 kt METAR EHMG 251755Z AUTO 23034KT 9000 -RADZ FEW010 13/11 Q1011
7:25 pm
V
55 °F 6¼ mi+ 4.900 ft 230° 230° 34 kt METAR EHMG 251725Z AUTO 23034KT 9999 FEW010 SCT044 BKN049 13/11 Q1011
6:55 pm
M
55 °F 6¼ mi+ 2.800 ft 220° 220° 35 kt METAR EHMG 251655Z AUTO 22035KT 9999 FEW010 SCT014 BKN028 13/11 Q1011
6:25 pm
M
55 °F 5⅝ mi 2.700 ft 220° 220° 33 kt METAR EHMG 251625Z AUTO 22033KT 9000 FEW012 SCT020 BKN027 13/11 Q1011
5:55 pm
M
55 °F 4⅜ mi 3.400 ft 220° 220° 33 kt METAR EHMG 251555Z AUTO 22033KT 7000 FEW021 SCT029 BKN034 13/11 Q1011
5:25 pm
M
55 °F 4⅜ mi 4.500 ft 230° 230° 37 kt METAR EHMG 251525Z AUTO 23037KT 7000 DZRA FEW025 SCT037 BKN045 13/10 Q1011
4:55 pm
V
55 °F 6¼ mi+ - 230° 230° 35 kt METAR EHMG 251455Z AUTO 23035KT 9999 FEW016 13/10 Q1011
Ältere Daten

Laden Sie unsere App herunter

Einfacher Zugriff auf das gesamte Flugwetter auf Ihrem Mobiltelefon und Tablet.
Mit vielen Funktionen, die auf der Website nicht verfügbar sind, wie Offline-Unterstützung und eine persönliche Flughafenliste.

Wir und Dritte verfolgen dein Internetverhalten auf unserer Website mit Cookies. Wenn du fortfährst, gehen wir davon aus, dass du mit unserer Cookie-Richtlinie einverstanden bist. Mehr erfahren